createdAt,value
2022-10-05T00:00:57.818Z,96192.4
2022-10-05T00:02:00.653Z,96195.8
2022-10-05T00:03:03.254Z,96192.2
2022-10-05T00:04:06.036Z,96190
2022-10-05T00:05:08.215Z,96187.8
2022-10-05T00:06:10.536Z,96188.8
2022-10-05T00:07:12.749Z,96187.3
2022-10-05T00:08:15.237Z,96178.7
2022-10-05T00:09:17.737Z,96181
2022-10-05T00:10:19.952Z,96177.2
2022-10-05T00:11:22.139Z,96178.6
2022-10-05T00:12:24.375Z,96177.3
2022-10-05T00:13:26.847Z,96176.3
2022-10-05T00:14:29.334Z,96172
2022-10-05T00:15:31.255Z,96172.1
2022-10-05T00:16:33.706Z,96169.2
2022-10-05T00:17:36.124Z,96164.9
2022-10-05T00:18:38.308Z,96164.9
2022-10-05T00:19:40.267Z,96161.8
2022-10-05T00:20:42.738Z,96159.6
2022-10-05T00:21:44.963Z,96153.5
2022-10-05T00:22:47.191Z,96158.3
2022-10-05T00:23:49.400Z,96155.3
2022-10-05T00:24:51.577Z,96154.2
2022-10-05T00:25:54.054Z,96156.8
2022-10-05T00:28:01.839Z,96153.2
2022-10-05T00:29:03.860Z,96154.2
2022-10-05T00:30:06.066Z,96151.8
2022-10-05T00:31:08.267Z,96150.9
2022-10-05T00:32:10.583Z,96150.3
2022-10-05T00:33:12.983Z,96146.8
2022-10-05T00:34:15.445Z,96144.6
2022-10-05T00:35:17.657Z,96141.8
2022-10-05T00:36:19.866Z,96141.3
2022-10-05T00:37:22.342Z,96138
2022-10-05T00:38:24.824Z,96134.9
2022-10-05T00:39:27.022Z,96134
2022-10-05T00:40:29.223Z,96133.1
2022-10-05T00:41:31.708Z,96133.9
2022-10-05T00:42:34.215Z,96133.8
2022-10-05T00:43:36.705Z,96132.1
2022-10-05T00:44:39.168Z,96127.1
2022-10-05T00:45:41.831Z,96128.7
2022-10-05T00:46:45.819Z,96129.8
2022-10-05T00:47:49.002Z,96129
2022-10-05T00:48:51.543Z,96123.6
2022-10-05T00:49:54.016Z,96126.3
2022-10-05T00:50:56.506Z,96129.4
2022-10-05T00:51:58.978Z,96134.3
2022-10-05T00:53:01.444Z,96132.3
2022-10-05T00:54:03.942Z,96130.4
2022-10-05T00:55:06.412Z,96126.3
2022-10-05T00:56:08.889Z,96131.2
2022-10-05T00:57:11.093Z,96132.1
2022-10-05T00:58:13.295Z,96132
2022-10-05T00:59:14.652Z,96127.2
2022-10-05T01:00:17.128Z,96123.8
2022-10-05T01:01:19.578Z,96120.3
2022-10-05T01:02:22.432Z,96121
2022-10-05T01:03:24.757Z,96121.8
2022-10-05T01:04:27.373Z,96122.8
2022-10-05T01:05:29.837Z,96121.5
2022-10-05T01:06:32.331Z,96119.6
2022-10-05T01:07:34.799Z,96114.8
2022-10-05T01:08:37.268Z,96118.5
2022-10-05T01:09:39.766Z,96114.1
2022-10-05T01:10:42.254Z,96114.7
2022-10-05T01:11:43.876Z,96111.1
2022-10-05T01:12:45.507Z,96107.4
2022-10-05T01:13:47.707Z,96107
2022-10-05T01:14:49.899Z,96111.3
2022-10-05T01:15:52.366Z,96110.6
2022-10-05T01:16:54.942Z,96111.4
2022-10-05T01:17:57.215Z,96110.6
2022-10-05T01:18:59.705Z,96106.4
2022-10-05T01:20:02.268Z,96109
2022-10-05T01:21:04.757Z,96105.1
2022-10-05T01:22:07.248Z,96103.1
2022-10-05T01:23:09.439Z,96101.4
2022-10-05T01:24:11.644Z,96101.5
2022-10-05T01:25:14.198Z,96100.9
2022-10-05T01:26:16.670Z,96105.2
2022-10-05T01:27:19.134Z,96097.6
2022-10-05T01:28:21.963Z,96102.8
2022-10-05T01:29:23.978Z,96098.5
2022-10-05T01:30:26.453Z,96097.6
2022-10-05T01:31:28.832Z,96093.3
2022-10-05T01:32:31.059Z,96091.1
2022-10-05T01:33:33.528Z,96094.4
2022-10-05T01:34:35.741Z,96093.7
2022-10-05T01:35:37.713Z,96095.7
2022-10-05T01:36:39.646Z,96096.7
2022-10-05T01:37:42.132Z,96091.7
2022-10-05T01:38:44.838Z,96099
2022-10-05T01:39:47.022Z,96096.6
2022-10-05T01:40:49.031Z,96094.2
2022-10-05T01:41:51.301Z,96092.5
2022-10-05T01:42:53.804Z,96094.5
2022-10-05T01:43:55.697Z,96094
2022-10-05T01:44:58.180Z,96094.1
2022-10-05T01:46:01.014Z,96093.8
2022-10-05T01:47:03.606Z,96091.9
2022-10-05T01:48:06.084Z,96093.1
2022-10-05T01:49:07.815Z,96091.7
2022-10-05T01:50:10.013Z,96095.2
2022-10-05T01:51:12.565Z,96093.9
2022-10-05T01:52:15.028Z,96093.3
2022-10-05T01:53:17.256Z,96090.7
2022-10-05T01:54:19.716Z,96087.8
2022-10-05T01:55:21.351Z,96093.9
2022-10-05T01:56:23.839Z,96090.8
2022-10-05T01:57:26.306Z,96091
2022-10-05T01:58:28.772Z,96088.8
2022-10-05T01:59:31.246Z,96087
2022-10-05T02:00:33.438Z,96086.4
2022-10-05T02:01:35.977Z,96087.6
2022-10-05T02:02:38.654Z,96087.1
2022-10-05T02:03:41.251Z,96085.3
2022-10-05T02:05:48.722Z,96085.8
2022-10-05T02:06:51.260Z,96089.8
2022-10-05T02:07:53.456Z,96084.4
2022-10-05T02:08:55.997Z,96084.2
2022-10-05T02:09:58.460Z,96079.1
2022-10-05T02:11:00.394Z,96076.2
2022-10-05T02:12:02.725Z,96080.1
2022-10-05T02:13:04.968Z,96079.3
2022-10-05T02:14:07.450Z,96071.6
2022-10-05T02:15:09.658Z,96072.6
2022-10-05T02:16:12.501Z,96069.3
2022-10-05T02:17:15.134Z,96066.9
2022-10-05T02:18:17.327Z,96067.1
2022-10-05T02:19:19.539Z,96067.7
2022-10-05T02:20:22.019Z,96064.5
2022-10-05T02:21:24.505Z,96064.7
2022-10-05T02:22:26.783Z,96066.4
2022-10-05T02:23:28.981Z,96068.5
2022-10-05T02:24:31.234Z,96066.1
2022-10-05T02:25:33.443Z,96073.7
2022-10-05T02:26:35.910Z,96068.1
2022-10-05T02:27:38.144Z,96070.8
2022-10-05T02:28:40.779Z,96068.1
2022-10-05T02:29:43.104Z,96068.3
2022-10-05T02:30:45.568Z,96068.4
2022-10-05T02:31:48.102Z,96068.2
2022-10-05T02:32:50.456Z,96065.1
2022-10-05T02:33:52.649Z,96060.4
2022-10-05T02:34:54.843Z,96061.6
2022-10-05T02:35:57.315Z,96062.4
2022-10-05T02:36:59.781Z,96060.4
2022-10-05T02:38:02.336Z,96062.2
2022-10-05T02:39:04.813Z,96062.2
2022-10-05T02:40:07.072Z,96060.8
2022-10-05T02:41:09.541Z,96057.2
2022-10-05T02:42:11.740Z,96058.5
2022-10-05T02:43:13.991Z,96056.8
2022-10-05T02:44:16.198Z,96057.5
2022-10-05T02:45:18.390Z,96057.7
2022-10-05T02:46:21.172Z,96058.1
2022-10-05T02:47:23.501Z,96054.3
2022-10-05T02:48:25.706Z,96053
2022-10-05T02:49:28.196Z,96049.7
2022-10-05T02:50:30.397Z,96048.5
2022-10-05T02:51:32.917Z,96045.3
2022-10-05T02:52:35.401Z,96042.6
2022-10-05T02:53:37.657Z,96046.3
2022-10-05T02:54:39.848Z,96050.3
2022-10-05T02:55:41.861Z,96046.3
2022-10-05T02:56:46.035Z,96046.8
2022-10-05T02:57:49.024Z,96054.2
2022-10-05T02:58:51.236Z,96058.6
2022-10-05T02:59:53.720Z,96057
2022-10-05T03:00:56.507Z,96054.5
2022-10-05T03:01:59.160Z,96051.9
2022-10-05T03:03:01.429Z,96058.8
2022-10-05T03:04:03.912Z,96057.5
2022-10-05T03:05:06.181Z,96053.8
2022-10-05T03:06:08.380Z,96056.9
2022-10-05T03:07:10.567Z,96055.7
2022-10-05T03:08:12.490Z,96056.3
2022-10-05T03:09:14.732Z,96057.8
2022-10-05T03:10:17.204Z,96057.7
2022-10-05T03:11:19.713Z,96063.2
2022-10-05T03:12:21.926Z,96059.7
2022-10-05T03:13:24.394Z,96058.1
2022-10-05T03:14:26.889Z,96064.1
2022-10-05T03:15:29.375Z,96059.5
2022-10-05T03:16:31.992Z,96060.6
2022-10-05T03:17:34.251Z,96063.5
2022-10-05T03:18:36.752Z,96061.6
2022-10-05T03:19:38.923Z,96051.3
2022-10-05T03:20:41.434Z,96058.6
2022-10-05T03:21:43.894Z,96063
2022-10-05T03:22:46.103Z,96065.7
2022-10-05T03:23:48.299Z,96063.4
2022-10-05T03:24:50.830Z,96065
2022-10-05T03:25:53.016Z,96064.7
2022-10-05T03:26:55.517Z,96063.9
2022-10-05T03:27:58.485Z,96064
2022-10-05T03:29:01.093Z,96065
2022-10-05T03:30:03.028Z,96066.6
2022-10-05T03:31:05.467Z,96068.7
2022-10-05T03:32:08.039Z,96065.1
2022-10-05T03:33:10.242Z,96066.5
2022-10-05T03:34:12.449Z,96066
2022-10-05T03:35:14.929Z,96064.1
2022-10-05T03:36:17.434Z,96063.2
2022-10-05T03:37:19.636Z,96063.8
2022-10-05T03:38:22.101Z,96064.3
2022-10-05T03:39:24.302Z,96060.5
2022-10-05T03:40:27.080Z,96062.8
2022-10-05T03:41:29.277Z,96062.5
2022-10-05T03:42:31.557Z,96063.3
2022-10-05T03:43:33.756Z,96064
2022-10-05T03:44:36.239Z,96066.3
2022-10-05T03:45:38.743Z,96064
2022-10-05T03:46:41.101Z,96062
2022-10-05T03:47:43.596Z,96066.9
2022-10-05T03:48:46.070Z,96062.4
2022-10-05T03:49:48.572Z,96060.9
2022-10-05T03:50:51.049Z,96059.8
2022-10-05T03:51:53.244Z,96056.3
2022-10-05T03:52:55.161Z,96055.9
2022-10-05T03:53:57.080Z,96052.9
2022-10-05T03:54:59.284Z,96051.1
2022-10-05T03:57:06.836Z,96044.4
2022-10-05T03:58:09.337Z,96047.5
2022-10-05T03:59:11.799Z,96042.6
2022-10-05T04:00:13.728Z,96047.8
2022-10-05T04:01:16.520Z,96046.7
2022-10-05T04:02:18.593Z,96043.3
2022-10-05T04:03:21.176Z,96045.4
2022-10-05T04:04:23.664Z,96051.5
2022-10-05T04:05:26.129Z,96049
2022-10-05T04:06:28.324Z,96050.1
2022-10-05T04:07:30.249Z,96055.5
2022-10-05T04:08:32.733Z,96057
2022-10-05T04:09:35.190Z,96058.8
2022-10-05T04:10:37.666Z,96053
2022-10-05T04:11:39.864Z,96050.5
2022-10-05T04:12:42.149Z,96052.2
2022-10-05T04:13:44.658Z,96050.1
2022-10-05T04:14:46.559Z,96049.4
2022-10-05T04:15:49.313Z,96047.8
2022-10-05T04:16:51.942Z,96048.2
2022-10-05T04:17:54.417Z,96048.2
2022-10-05T04:18:56.604Z,96045.5
2022-10-05T04:19:59.073Z,96049.5
2022-10-05T04:21:01.573Z,96044.1
2022-10-05T04:22:03.765Z,96042.1
2022-10-05T04:23:06.239Z,96049.7
2022-10-05T04:24:08.127Z,96043.5
2022-10-05T04:25:10.607Z,96040.7
2022-10-05T04:26:13.074Z,96041.3
2022-10-05T04:27:15.270Z,96045.7
2022-10-05T04:28:18.237Z,96043.3
2022-10-05T04:29:20.845Z,96048
2022-10-05T04:30:23.040Z,96042.7
2022-10-05T04:31:25.729Z,96043.6
2022-10-05T04:32:28.302Z,96040.9
2022-10-05T04:33:30.781Z,96043.7
2022-10-05T04:34:32.974Z,96041.8
2022-10-05T04:35:35.168Z,96041.3
2022-10-05T04:36:37.364Z,96042.4
2022-10-05T04:38:44.877Z,96037.9
2022-10-05T04:39:47.386Z,96040.5
2022-10-05T04:40:49.886Z,96037.6
2022-10-05T04:41:52.102Z,96042
2022-10-05T04:42:53.994Z,96040.7
2022-10-05T04:43:56.644Z,96044.4
2022-10-05T04:45:00.590Z,96048.1
2022-10-05T04:46:03.070Z,96049
2022-10-05T04:47:05.870Z,96044.6
2022-10-05T04:48:08.619Z,96044.8
2022-10-05T04:49:11.084Z,96046.8
2022-10-05T04:50:13.561Z,96044.8
2022-10-05T04:51:16.265Z,96048.2
2022-10-05T04:52:18.743Z,96048.2
2022-10-05T04:53:20.647Z,96051.1
2022-10-05T04:54:23.122Z,96048.6
2022-10-05T04:55:25.589Z,96049.3
2022-10-05T04:56:28.064Z,96048.6
2022-10-05T04:57:30.529Z,96053.5
2022-10-05T04:58:33.014Z,96052
2022-10-05T04:59:35.606Z,96049.8
2022-10-05T05:00:38.047Z,96050.8
2022-10-05T05:01:40.611Z,96051.1
2022-10-05T05:02:43.081Z,96054.5
2022-10-05T05:03:45.887Z,96050.1
2022-10-05T05:06:58.444Z,96061.1
2022-10-05T05:08:00.621Z,96061.2
2022-10-05T05:09:02.821Z,96059.4
2022-10-05T05:10:05.041Z,96063.2
2022-10-05T05:11:06.960Z,96068.5
2022-10-05T05:12:13.905Z,96065.7
2022-10-05T05:13:16.385Z,96059.9
2022-10-05T05:14:18.849Z,96061.3
2022-10-05T05:15:21.437Z,96065.1
2022-10-05T05:16:24.485Z,96065.9
2022-10-05T05:17:27.038Z,96066.8
2022-10-05T05:18:29.505Z,96068.1
2022-10-05T05:19:31.747Z,96071.2
2022-10-05T05:20:34.218Z,96067.5
2022-10-05T05:21:36.146Z,96071.3
2022-10-05T05:22:38.619Z,96072
2022-10-05T05:23:41.102Z,96072.7
2022-10-05T05:24:43.564Z,96073.4
2022-10-05T05:25:46.045Z,96070.5
2022-10-05T05:26:49.887Z,96073.4
2022-10-05T05:27:52.795Z,96071.5
2022-10-05T05:28:54.814Z,96070.2
2022-10-05T05:29:56.737Z,96070.1
2022-10-05T05:30:59.478Z,96070.1
2022-10-05T05:32:01.842Z,96073.8
2022-10-05T05:33:04.143Z,96069
2022-10-05T05:34:06.086Z,96066.7
2022-10-05T05:35:08.059Z,96068.5
2022-10-05T05:36:10.304Z,96073.4
2022-10-05T05:37:12.278Z,96078.3
2022-10-05T05:38:14.828Z,96076.7
2022-10-05T05:39:17.297Z,96079.7
2022-10-05T05:40:19.513Z,96075
2022-10-05T05:41:21.963Z,96079.5
2022-10-05T05:42:24.508Z,96077.1
2022-10-05T05:43:26.996Z,96079.6
2022-10-05T05:44:29.518Z,96078.3
2022-10-05T05:45:31.744Z,96079.6
2022-10-05T05:47:39.959Z,96080.6
2022-10-05T05:48:42.675Z,96076.7
2022-10-05T05:49:44.873Z,96078
2022-10-05T05:50:47.099Z,96079
2022-10-05T05:51:49.576Z,96076.5
2022-10-05T05:52:52.056Z,96073.7
2022-10-05T05:53:54.251Z,96076.5
2022-10-05T05:54:55.616Z,96074.9
2022-10-05T05:55:57.515Z,96076.3
2022-10-05T05:57:00.031Z,96072.8
2022-10-05T05:58:02.521Z,96079.3
2022-10-05T05:59:04.452Z,96077.7
2022-10-05T06:00:06.432Z,96080.4
2022-10-05T06:02:14.263Z,96077.2
2022-10-05T06:03:17.343Z,96081.1
2022-10-05T06:04:19.724Z,96075.7
2022-10-05T06:05:21.927Z,96078.1
2022-10-05T06:06:24.143Z,96076.5
2022-10-05T06:08:31.632Z,96073
2022-10-05T06:09:33.847Z,96071.8
2022-10-05T06:10:35.781Z,96073.8
2022-10-05T06:11:38.270Z,96073.6
2022-10-05T06:12:40.499Z,96071.3
2022-10-05T06:13:42.974Z,96072.8
2022-10-05T06:14:45.449Z,96077.2
2022-10-05T06:15:47.660Z,96075.4
2022-10-05T06:16:52.343Z,96073.4
2022-10-05T06:17:54.983Z,96073.3
2022-10-05T06:18:57.542Z,96075.4
2022-10-05T06:21:05.019Z,96074.9
2022-10-05T06:22:07.510Z,96079.2
2022-10-05T06:23:09.975Z,96075.4
2022-10-05T06:24:12.161Z,96076.5
2022-10-05T06:25:13.807Z,96073.1
2022-10-05T06:26:15.737Z,96074.8
2022-10-05T06:27:18.222Z,96072.6
2022-10-05T06:28:20.798Z,96072.4
2022-10-05T06:29:23.126Z,96076.1
2022-10-05T06:30:25.331Z,96075.9
2022-10-05T06:31:27.572Z,96079.1
2022-10-05T06:32:29.831Z,96084.9
2022-10-05T06:33:32.006Z,96083.5
2022-10-05T06:34:34.572Z,96084.2
2022-10-05T06:35:36.775Z,96084.8
2022-10-05T06:36:39.299Z,96086.6
2022-10-05T06:37:41.607Z,96083.5
2022-10-05T06:38:44.099Z,96085.7
2022-10-05T06:39:46.583Z,96088.6
2022-10-05T06:40:49.068Z,96085.8
2022-10-05T06:41:51.560Z,96089.5
2022-10-05T06:42:54.043Z,96084.3
2022-10-05T06:43:55.966Z,96090.1
2022-10-05T06:44:58.173Z,96087.7
2022-10-05T06:46:00.356Z,96082.3
2022-10-05T06:47:02.648Z,96090.5
2022-10-05T06:48:06.856Z,96085.9
2022-10-05T06:49:09.059Z,96089.9
2022-10-05T06:50:11.691Z,96090.6
2022-10-05T06:51:13.891Z,96088.4
2022-10-05T06:52:16.355Z,96093.6
2022-10-05T06:53:18.361Z,96090
2022-10-05T06:54:20.841Z,96089.3
2022-10-05T06:55:22.506Z,96090.7
2022-10-05T06:56:24.987Z,96089.4
2022-10-05T06:57:27.212Z,96089.2
2022-10-05T06:58:29.403Z,96091.9
2022-10-05T06:59:31.881Z,96090.3
2022-10-05T07:00:34.355Z,96089.6
2022-10-05T07:01:36.883Z,96089.5
2022-10-05T07:02:39.417Z,96093
2022-10-05T07:03:41.837Z,96093.8
2022-10-05T07:04:44.057Z,96085.7
2022-10-05T07:05:46.626Z,96090.5
2022-10-05T07:06:48.540Z,96091.6
2022-10-05T07:07:50.764Z,96088.7
2022-10-05T07:08:52.710Z,96092
2022-10-05T07:09:55.191Z,96091
2022-10-05T07:10:57.389Z,96087.9
2022-10-05T07:13:04.585Z,96092.1
2022-10-05T07:14:07.065Z,96092.8
2022-10-05T07:15:08.982Z,96093.5
2022-10-05T07:16:11.428Z,96097.3
2022-10-05T07:17:13.747Z,96093.6
2022-10-05T07:18:15.446Z,96098.2
2022-10-05T07:19:17.632Z,96099.1
2022-10-05T07:20:19.595Z,96107.8
2022-10-05T07:21:21.869Z,96099.6
2022-10-05T07:22:24.363Z,96098.2
2022-10-05T07:23:26.871Z,96103.2
2022-10-05T07:24:29.410Z,96109.1
2022-10-05T07:25:31.615Z,96111.2
2022-10-05T07:26:34.105Z,96107.3
2022-10-05T07:27:36.376Z,96109.6
2022-10-05T07:28:39.358Z,96115
2022-10-05T07:29:41.671Z,96117.1
2022-10-05T07:30:43.931Z,96115.3
2022-10-05T07:31:46.507Z,96119.1
2022-10-05T07:32:48.736Z,96118.1
2022-10-05T07:33:51.217Z,96117.8
2022-10-05T07:34:53.431Z,96123.3
2022-10-05T07:35:55.626Z,96120.7
2022-10-05T07:36:59.642Z,96121.3
2022-10-05T07:38:02.155Z,96125
2022-10-05T07:39:04.378Z,96124.8
2022-10-05T07:40:06.879Z,96124.9
2022-10-05T07:41:09.087Z,96126.2
2022-10-05T07:42:11.279Z,96127.6
2022-10-05T07:43:13.790Z,96125.4
2022-10-05T07:44:15.709Z,96128.4
2022-10-05T07:45:18.197Z,96124.8
2022-10-05T07:46:20.777Z,96130.2
2022-10-05T07:47:23.103Z,96130
2022-10-05T07:48:25.588Z,96133.2
2022-10-05T07:49:28.078Z,96129.6
2022-10-05T07:50:30.283Z,96131.8
2022-10-05T07:51:32.522Z,96133.6
2022-10-05T07:52:36.645Z,96127.7
2022-10-05T07:53:38.850Z,96130.6
2022-10-05T07:54:41.060Z,96134
2022-10-05T07:55:43.588Z,96129.4
2022-10-05T07:56:47.423Z,96134
2022-10-05T07:57:50.356Z,96131.8
2022-10-05T07:58:52.821Z,96132.6
2022-10-05T07:59:55.066Z,96136.9
2022-10-05T08:00:57.265Z,96136.7
2022-10-05T08:01:59.491Z,96137
2022-10-05T08:03:02.286Z,96140
2022-10-05T08:04:04.920Z,96138.4
2022-10-05T08:05:06.838Z,96144.5
2022-10-05T08:06:09.318Z,96139.9
2022-10-05T08:07:11.765Z,96144.7
2022-10-05T08:09:19.116Z,96143.1
2022-10-05T08:10:21.495Z,96142.8
2022-10-05T08:11:24.004Z,96143.5
2022-10-05T08:12:26.202Z,96146.1
2022-10-05T08:13:28.670Z,96147.2
2022-10-05T08:14:31.074Z,96146.5
2022-10-05T08:15:33.784Z,96146.8
2022-10-05T08:16:36.110Z,96146.7
2022-10-05T08:17:38.031Z,96143.5
2022-10-05T08:18:40.239Z,96145.3
2022-10-05T08:19:42.753Z,96145.5
2022-10-05T08:20:44.682Z,96146.2
2022-10-05T08:21:48.652Z,96146.5
2022-10-05T08:22:52.081Z,96152.1
2022-10-05T08:23:54.578Z,96149.5
2022-10-05T08:24:56.871Z,96149
2022-10-05T08:25:59.076Z,96147.5
2022-10-05T08:27:01.377Z,96151.9
2022-10-05T08:28:03.812Z,96155.2
2022-10-05T08:29:08.228Z,96152.4
2022-10-05T08:30:12.010Z,96156.5
2022-10-05T08:31:14.872Z,96155.7
2022-10-05T08:32:16.590Z,96157.1
2022-10-05T08:33:19.069Z,96151.5
2022-10-05T08:34:21.006Z,96156.8
2022-10-05T08:35:22.933Z,96158.6
2022-10-05T08:36:25.441Z,96158.7
2022-10-05T08:37:27.442Z,96157.9
2022-10-05T08:38:29.917Z,96158.1
2022-10-05T08:39:32.429Z,96155.4
2022-10-05T08:40:34.735Z,96155.5
2022-10-05T08:41:36.643Z,96160.4
2022-10-05T08:42:38.584Z,96155.3
2022-10-05T08:43:40.787Z,96160.4
2022-10-05T08:44:43.272Z,96160.2
2022-10-05T08:45:45.525Z,96158.3
2022-10-05T08:46:48.146Z,96159
2022-10-05T08:47:50.330Z,96158.1
2022-10-05T08:48:52.498Z,96163
2022-10-05T08:49:54.983Z,96158.2
2022-10-05T08:50:57.190Z,96163.2
2022-10-05T08:51:59.392Z,96153.3
2022-10-05T08:53:01.975Z,96158.6
2022-10-05T08:54:03.351Z,96154
2022-10-05T08:55:05.565Z,96158.7
2022-10-05T08:56:08.105Z,96159.8
2022-10-05T08:57:10.575Z,96161.8
2022-10-05T08:58:13.083Z,96158.7
2022-10-05T08:59:14.977Z,96158.7
2022-10-05T09:00:17.454Z,96160.2
2022-10-05T09:01:20.106Z,96159.7
2022-10-05T09:02:23.113Z,96159.9
2022-10-05T09:03:25.702Z,96157.6
2022-10-05T09:04:27.638Z,96155.6
2022-10-05T09:05:30.136Z,96150.9
2022-10-05T09:06:32.629Z,96154.1
2022-10-05T09:07:37.566Z,96152.3
2022-10-05T09:08:39.624Z,96155.1
2022-10-05T09:09:41.891Z,96149
2022-10-05T09:10:44.376Z,96152.3
2022-10-05T09:11:47.996Z,96152.4
2022-10-05T09:12:51.216Z,96146.5
2022-10-05T09:13:53.724Z,96153.2
2022-10-05T09:16:00.878Z,96154.8
2022-10-05T09:17:03.302Z,96152.2
2022-10-05T09:18:05.782Z,96150.6
2022-10-05T09:19:08.255Z,96153.8
2022-10-05T09:20:10.155Z,96152.7
2022-10-05T09:21:12.368Z,96159.2
2022-10-05T09:22:14.568Z,96155.4
2022-10-05T09:23:16.772Z,96154.8
2022-10-05T09:24:19.255Z,96155.3
2022-10-05T09:25:21.768Z,96154
2022-10-05T09:26:24.290Z,96154
2022-10-05T09:27:26.571Z,96156.5
2022-10-05T09:28:29.084Z,96153.3
2022-10-05T09:29:31.435Z,96153.5
2022-10-05T09:30:32.881Z,96151.5
2022-10-05T09:31:34.853Z,96153.7
2022-10-05T09:32:37.320Z,96158.1
2022-10-05T09:33:39.800Z,96153.5
2022-10-05T09:34:42.101Z,96153.5
2022-10-05T09:35:44.584Z,96155.3
2022-10-05T09:36:47.048Z,96156
2022-10-05T09:37:48.709Z,96159.2
2022-10-05T09:38:51.180Z,96162.4
2022-10-05T09:39:59.115Z,96161.5
2022-10-05T09:41:01.989Z,96160.2
2022-10-05T09:42:04.483Z,96160.5
2022-10-05T09:43:07.467Z,96165.3
2022-10-05T09:44:10.030Z,96158.9
2022-10-05T09:45:12.525Z,96157.5
2022-10-05T09:46:19.564Z,96156.9
2022-10-05T09:47:21.932Z,96159.1
2022-10-05T09:48:23.867Z,96156.2
2022-10-05T09:49:26.347Z,96158.9
2022-10-05T09:50:28.559Z,96157.6
2022-10-05T09:51:30.761Z,96159.7
2022-10-05T09:52:32.679Z,96154
2022-10-05T09:53:35.165Z,96155.8
2022-10-05T09:54:37.661Z,96157.8
2022-10-05T09:55:39.867Z,96155.8
2022-10-05T09:56:41.799Z,96155.5
2022-10-05T09:57:44.410Z,96158.9
2022-10-05T09:58:47.937Z,96156.6
2022-10-05T09:59:49.842Z,96152.8
2022-10-05T10:01:57.562Z,96151.5
2022-10-05T10:03:01.024Z,96152.3
2022-10-05T10:04:03.842Z,96149.8
2022-10-05T10:05:06.163Z,96149
2022-10-05T10:06:08.661Z,96153.8
2022-10-05T10:07:10.877Z,96149.3
2022-10-05T10:08:13.352Z,96149.9
2022-10-05T10:09:15.266Z,96147.8
2022-10-05T10:10:17.951Z,96146.3
2022-10-05T10:11:20.213Z,96148.3
2022-10-05T10:12:22.676Z,96153.5
2022-10-05T10:13:25.189Z,96144.3
2022-10-05T10:14:27.174Z,96146.2
2022-10-05T10:15:29.531Z,96144.4
2022-10-05T10:16:32.220Z,96146.5
2022-10-05T10:17:34.426Z,96144
2022-10-05T10:18:36.612Z,96145
2022-10-05T10:19:39.094Z,96147.5
2022-10-05T10:20:41.572Z,96148.3
2022-10-05T10:21:43.558Z,96150
2022-10-05T10:22:46.454Z,96149.4
2022-10-05T10:23:48.950Z,96149.3
2022-10-05T10:24:50.854Z,96148.3
2022-10-05T10:25:53.326Z,96150.9
2022-10-05T10:26:55.517Z,96150.9
2022-10-05T10:27:58.226Z,96151.2
2022-10-05T10:29:00.502Z,96148.6
2022-10-05T10:30:03.098Z,96150.8
2022-10-05T10:31:05.561Z,96151.1
2022-10-05T10:32:07.607Z,96154.6
2022-10-05T10:33:09.807Z,96152.5
2022-10-05T10:34:11.988Z,96148.6
2022-10-05T10:35:14.460Z,96153.2
2022-10-05T10:36:16.385Z,96150.4
2022-10-05T10:37:18.851Z,96148.9
2022-10-05T10:38:21.063Z,96153.6
2022-10-05T10:39:23.592Z,96149.6
2022-10-05T10:40:25.511Z,96150.2
2022-10-05T10:41:27.996Z,96151.1
2022-10-05T10:42:29.925Z,96148.9
2022-10-05T10:43:32.114Z,96148.1
2022-10-05T10:44:34.610Z,96153.3
2022-10-05T10:45:37.301Z,96147.3
2022-10-05T10:46:39.589Z,96140.5
2022-10-05T10:47:41.701Z,96146.9
2022-10-05T10:48:43.880Z,96149.9
2022-10-05T10:49:46.073Z,96154.5
2022-10-05T10:50:48.274Z,96146.8
2022-10-05T10:51:50.738Z,96145.6
2022-10-05T10:52:52.679Z,96147.2
2022-10-05T10:53:55.147Z,96146.6
2022-10-05T10:54:57.627Z,96143
2022-10-05T10:56:00.118Z,96144.9
2022-10-05T10:57:02.594Z,96144
2022-10-05T10:58:05.110Z,96148.5
2022-10-05T10:59:07.308Z,96146.6
2022-10-05T11:00:09.811Z,96143.8
2022-10-05T11:01:12.486Z,96141.6
2022-10-05T11:02:15.184Z,96144.7
2022-10-05T11:03:18.194Z,96135.7
2022-10-05T11:04:20.414Z,96137.5
2022-10-05T11:05:22.901Z,96135.4
2022-10-05T11:06:24.830Z,96136.1
2022-10-05T11:07:27.024Z,96137
2022-10-05T11:08:29.500Z,96135.4
2022-10-05T11:09:31.972Z,96134.1
2022-10-05T11:10:34.452Z,96135.6
2022-10-05T11:11:36.378Z,96130.3
2022-10-05T11:12:38.582Z,96130.8
2022-10-05T11:13:41.058Z,96132.4
2022-10-05T11:14:43.009Z,96129.7
2022-10-05T11:15:46.065Z,96127.8
2022-10-05T11:16:49.884Z,96123.3
2022-10-05T11:17:52.807Z,96125.2
2022-10-05T11:18:55.064Z,96120.7
2022-10-05T11:21:02.532Z,96118.2
2022-10-05T11:22:05.034Z,96120.1
2022-10-05T11:23:06.673Z,96115
2022-10-05T11:24:08.581Z,96111.6
2022-10-05T11:25:11.059Z,96108.2
2022-10-05T11:26:13.264Z,96115
2022-10-05T11:27:15.984Z,96115.3
2022-10-05T11:28:18.597Z,96115.7
2022-10-05T11:29:21.153Z,96108.9
2022-10-05T11:30:23.646Z,96106.7
2022-10-05T11:31:26.281Z,96106.5
2022-10-05T11:32:29.206Z,96107.9
2022-10-05T11:33:31.677Z,96096.8
2022-10-05T11:34:34.165Z,96100.3
2022-10-05T11:35:36.630Z,96092.3
2022-10-05T11:36:39.104Z,96095.6
2022-10-05T11:37:41.034Z,96090.1
2022-10-05T11:38:42.955Z,96090.6
2022-10-05T11:39:45.433Z,96093.5
2022-10-05T11:40:47.343Z,96089
2022-10-05T11:41:51.463Z,96090.3
2022-10-05T11:42:53.698Z,96086.8
2022-10-05T11:43:55.623Z,96085.6
2022-10-05T11:44:57.846Z,96090.6
2022-10-05T11:46:00.620Z,96090.5
2022-10-05T11:47:02.954Z,96085.8
2022-10-05T11:48:05.310Z,96081.3
2022-10-05T11:49:07.233Z,96082.7
2022-10-05T11:50:09.452Z,96078
2022-10-05T11:51:11.402Z,96075.9
2022-10-05T11:52:13.320Z,96077.8
2022-10-05T11:53:15.258Z,96075.7
2022-10-05T11:54:17.749Z,96074.3
2022-10-05T11:55:20.233Z,96074.7
2022-10-05T11:56:23.013Z,96073.2
2022-10-05T11:57:25.286Z,96073.3
2022-10-05T11:58:27.797Z,96071.1
2022-10-05T11:59:29.451Z,96073.1
2022-10-05T12:00:31.395Z,96074.6
2022-10-05T12:01:33.604Z,96070.6
2022-10-05T12:03:43.306Z,96072.9
2022-10-05T12:04:45.705Z,96075.7
2022-10-05T12:05:48.141Z,96070
2022-10-05T12:06:52.432Z,96064.8
2022-10-05T12:07:54.906Z,96069.2
2022-10-05T12:08:57.380Z,96067.5
2022-10-05T12:09:59.338Z,96067.4
2022-10-05T12:11:01.550Z,96069.4
2022-10-05T12:12:03.744Z,96067.4
2022-10-05T12:13:05.967Z,96067.1
2022-10-05T12:14:08.168Z,96062.8
2022-10-05T12:15:10.380Z,96064.6
2022-10-05T12:16:12.772Z,96062.5
2022-10-05T12:17:15.312Z,96060.4
2022-10-05T12:18:17.813Z,96061.3
2022-10-05T12:19:20.322Z,96062.5
2022-10-05T12:20:22.806Z,96054.3
2022-10-05T12:21:25.318Z,96055.5
2022-10-05T12:22:27.531Z,96053.4
2022-10-05T12:23:29.491Z,96057.7
2022-10-05T12:24:31.960Z,96054.6
2022-10-05T12:25:34.174Z,96055.3
2022-10-05T12:26:36.356Z,96052.3
2022-10-05T12:27:38.852Z,96050.5
2022-10-05T12:28:41.370Z,96049
2022-10-05T12:29:43.627Z,96052.4
2022-10-05T12:30:46.097Z,96051.9
2022-10-05T12:31:48.273Z,96052.1
2022-10-05T12:32:50.385Z,96047.3
2022-10-05T12:33:53.083Z,96049.5
2022-10-05T12:36:00.453Z,96047.3
2022-10-05T12:38:07.941Z,96041.8
2022-10-05T12:39:10.270Z,96045.1
2022-10-05T12:40:12.217Z,96038.7
2022-10-05T12:41:14.486Z,96041.9
2022-10-05T12:42:16.964Z,96041.1
2022-10-05T12:43:19.173Z,96042.5
2022-10-05T12:44:21.366Z,96041.1
2022-10-05T12:45:24.042Z,96039.6
2022-10-05T12:46:26.342Z,96042.1
2022-10-05T12:47:28.550Z,96040.1
2022-10-05T12:48:31.035Z,96041.4
2022-10-05T12:49:33.556Z,96041.1
2022-10-05T12:50:35.750Z,96042.8
2022-10-05T12:51:38.028Z,96038.5
2022-10-05T12:52:40.258Z,96036.3
2022-10-05T12:53:42.746Z,96038
2022-10-05T12:54:45.243Z,96036.9
2022-10-05T12:55:47.725Z,96034
2022-10-05T12:56:49.692Z,96037.2
2022-10-05T12:57:52.253Z,96035.4
2022-10-05T12:58:54.723Z,96034.2
2022-10-05T12:59:56.943Z,96033.1